createdAt,value
2017-09-28T04:47:12.313Z,2
2017-09-28T04:53:12.742Z,5
2017-09-28T04:56:12.941Z,8
2017-09-28T04:57:43.040Z,10
2017-09-28T04:59:13.130Z,13
2017-09-28T05:00:13.196Z,15
2017-09-28T05:00:43.221Z,17
2017-09-28T05:01:13.255Z,20
2017-09-28T05:02:13.303Z,22
2017-09-28T05:02:43.328Z,25
2017-09-28T05:03:13.390Z,28
2017-09-28T05:03:43.385Z,30
2017-09-28T05:04:13.450Z,32
2017-09-28T05:04:43.455Z,35
2017-09-28T05:05:13.458Z,37
2017-09-28T05:05:43.591Z,40
2017-09-28T05:06:13.525Z,45
2017-09-28T05:06:43.584Z,50
2017-09-28T05:07:13.640Z,55
2017-09-28T05:07:43.632Z,60
2017-09-28T05:08:13.708Z,62
2017-09-28T05:08:43.682Z,65
2017-09-28T05:09:43.771Z,67
2017-09-28T05:10:13.775Z,70
2017-09-28T05:10:43.810Z,75
2017-09-28T05:11:13.850Z,80
2017-09-28T05:11:43.897Z,85
2017-09-28T05:12:13.953Z,90
2017-09-28T05:12:43.958Z,95
2017-09-28T05:13:14.001Z,100
2017-09-28T05:13:44.047Z,105
2017-09-28T05:14:14.097Z,107
2017-09-28T05:14:44.103Z,112
2017-09-28T05:15:14.125Z,118
2017-09-28T05:15:44.180Z,120
2017-09-28T05:16:14.194Z,122
2017-09-28T05:16:44.221Z,130
2017-09-28T05:17:14.287Z,135
2017-09-28T05:17:44.324Z,140
2017-09-28T05:18:14.388Z,145
2017-09-28T05:18:44.389Z,152
2017-09-28T05:19:14.411Z,155
2017-09-28T05:19:44.474Z,160
2017-09-28T05:20:14.480Z,163
2017-09-28T05:21:14.567Z,160
2017-09-28T05:21:44.616Z,148
2017-09-28T05:22:14.618Z,145
2017-09-28T05:23:14.707Z,142
2017-09-28T05:24:14.769Z,148
2017-09-28T05:24:44.796Z,155
2017-09-28T05:25:14.780Z,160
2017-09-28T05:25:44.861Z,167
2017-09-28T05:26:14.876Z,170
2017-09-28T05:27:14.951Z,180
2017-09-28T05:27:45.015Z,197
2017-09-28T05:28:15.060Z,212
2017-09-28T05:28:45.071Z,220
2017-09-28T05:29:15.092Z,230
2017-09-28T05:29:45.140Z,242
2017-09-28T05:30:15.180Z,250
2017-09-28T05:30:45.198Z,262
2017-09-28T05:31:15.239Z,285
2017-09-28T05:31:45.268Z,310
2017-09-28T05:32:15.254Z,328
2017-09-28T05:32:45.321Z,347
2017-09-28T05:33:15.343Z,365
2017-09-28T05:33:45.392Z,388
2017-09-28T05:34:15.425Z,420
2017-09-28T05:34:45.471Z,442
2017-09-28T05:35:15.479Z,452
2017-09-28T05:35:45.507Z,465
2017-09-28T05:36:15.559Z,480
2017-09-28T05:36:45.540Z,487
2017-09-28T05:37:15.608Z,490
2017-09-28T05:38:15.692Z,527
2017-09-28T05:38:45.662Z,545
2017-09-28T05:39:15.744Z,538
2017-09-28T05:39:45.797Z,525
2017-09-28T05:40:15.802Z,535
2017-09-28T05:40:45.837Z,557
2017-09-28T05:41:15.821Z,585
2017-09-28T05:41:46.019Z,595
2017-09-28T05:42:15.940Z,617
2017-09-28T05:42:45.983Z,620
2017-09-28T05:43:16.011Z,637
2017-09-28T05:43:46.005Z,645
2017-09-28T05:44:16.074Z,667
2017-09-28T05:44:46.128Z,680
2017-09-28T05:45:16.152Z,692
2017-09-28T05:45:46.175Z,725
2017-09-28T05:46:16.196Z,755
2017-09-28T05:46:46.227Z,778
2017-09-28T05:47:16.270Z,800
2017-09-28T05:47:46.322Z,815
2017-09-28T05:48:16.313Z,812
2017-09-28T05:48:46.381Z,820
2017-09-28T05:49:16.418Z,833
2017-09-28T05:50:16.456Z,853
2017-09-28T05:50:46.495Z,902
2017-09-28T05:51:16.532Z,962
2017-09-28T05:51:46.536Z,985
2017-09-28T05:52:16.601Z,998
2017-09-28T05:52:46.601Z,1003
2017-09-28T05:53:16.610Z,1010
2017-09-28T05:53:46.656Z,1000
2017-09-28T05:54:16.725Z,973
2017-09-28T05:54:46.690Z,992
2017-09-28T05:55:16.766Z,1003
2017-09-28T05:55:46.748Z,1050
2017-09-28T05:56:16.816Z,1055
2017-09-28T05:56:46.818Z,1067
2017-09-28T05:57:16.854Z,1030
2017-09-28T05:57:46.936Z,1035
2017-09-28T05:58:16.936Z,1070
2017-09-28T05:58:46.945Z,1138
2017-09-28T05:59:16.992Z,1210
2017-09-28T05:59:47.056Z,1240
2017-09-28T06:00:17.041Z,1247
2017-09-28T06:00:47.104Z,1258
2017-09-28T06:01:17.167Z,1282
2017-09-28T06:01:47.188Z,1315
2017-09-28T06:02:17.209Z,1310
2017-09-28T06:02:47.278Z,1345
2017-09-28T06:03:17.286Z,1412
2017-09-28T06:03:47.308Z,1450
2017-09-28T06:04:17.343Z,1472
2017-09-28T06:04:47.372Z,1530
2017-09-28T06:05:17.420Z,1605
2017-09-28T06:05:47.464Z,1622
2017-09-28T06:06:17.510Z,1637
2017-09-28T06:06:47.491Z,1667
2017-09-28T06:07:17.562Z,1637
2017-09-28T06:07:47.587Z,1580
2017-09-28T06:08:17.584Z,1630
2017-09-28T06:08:47.687Z,1605
2017-09-28T06:09:17.688Z,1685
2017-09-28T06:09:47.701Z,1708
2017-09-28T06:10:17.783Z,1727
2017-09-28T06:10:47.795Z,1730
2017-09-28T06:11:17.799Z,1760
2017-09-28T06:11:47.847Z,1715
2017-09-28T06:12:17.944Z,1757
2017-09-28T06:12:47.918Z,1868
2017-09-28T06:13:17.980Z,1890
2017-09-28T06:13:47.956Z,1862
2017-09-28T06:14:18.015Z,1907
2017-09-28T06:14:48.036Z,1883
2017-09-28T06:15:18.084Z,1830
2017-09-28T06:15:48.061Z,1840
2017-09-28T06:16:18.162Z,1838
2017-09-28T06:16:48.187Z,1810
2017-09-28T06:17:18.220Z,1753
2017-09-28T06:17:48.258Z,1682
2017-09-28T06:18:18.302Z,1588
2017-09-28T06:18:48.268Z,1538
2017-09-28T06:19:18.375Z,1588
2017-09-28T06:19:48.396Z,1642
2017-09-28T06:20:18.360Z,1618
2017-09-28T06:20:48.454Z,1573
2017-09-28T06:21:18.481Z,1588
2017-09-28T06:21:48.532Z,1515
2017-09-28T06:22:18.571Z,1400
2017-09-28T06:22:48.644Z,1403
2017-09-28T06:23:18.624Z,1450
2017-09-28T06:23:48.699Z,1532
2017-09-28T06:24:18.699Z,1600
2017-09-28T06:24:48.731Z,1685
2017-09-28T06:25:18.748Z,1813
2017-09-28T06:25:48.750Z,1907
2017-09-28T06:26:18.826Z,2012
2017-09-28T06:26:48.889Z,1950
2017-09-28T06:27:18.924Z,1832
2017-09-28T06:27:48.949Z,1875
2017-09-28T06:28:18.973Z,1990
2017-09-28T06:28:48.995Z,2057
2017-09-28T06:29:18.974Z,2160
2017-09-28T06:29:49.041Z,2280
2017-09-28T06:30:19.101Z,2353
2017-09-28T06:30:49.109Z,2315
2017-09-28T06:31:19.135Z,2325
2017-09-28T06:31:49.160Z,2362
2017-09-28T06:32:19.236Z,2528
2017-09-28T06:32:49.267Z,2585
2017-09-28T06:33:19.289Z,2435
2017-09-28T06:33:49.312Z,2162
2017-09-28T06:34:19.298Z,1990
2017-09-28T06:34:49.406Z,2025
2017-09-28T06:35:19.436Z,2080
2017-09-28T06:35:49.460Z,2005
2017-09-28T06:36:19.507Z,1967
2017-09-28T06:36:49.484Z,2020
2017-09-28T06:37:19.523Z,2012
2017-09-28T06:37:49.584Z,1855
2017-09-28T06:38:19.646Z,1755
2017-09-28T06:38:49.625Z,1760
2017-09-28T06:39:19.636Z,1765
2017-09-28T06:39:49.663Z,1823
2017-09-28T06:40:19.708Z,1933
2017-09-28T06:40:49.728Z,2000
2017-09-28T06:41:19.771Z,2055
2017-09-28T06:41:49.804Z,2012
2017-09-28T06:42:19.929Z,2003
2017-09-28T06:42:49.914Z,2015
2017-09-28T06:43:19.953Z,1987
2017-09-28T06:43:49.979Z,2012
2017-09-28T06:44:20.013Z,2055
2017-09-28T06:44:50.056Z,1955
2017-09-28T06:45:20.117Z,1840
2017-09-28T06:45:50.106Z,1750
2017-09-28T06:46:20.167Z,1733
2017-09-28T06:46:50.246Z,1735
2017-09-28T06:47:20.211Z,1708
2017-09-28T06:47:50.301Z,1720
2017-09-28T06:48:20.349Z,1792
2017-09-28T06:48:50.383Z,1847
2017-09-28T06:49:20.399Z,1907
2017-09-28T06:49:50.415Z,1843
2017-09-28T06:50:20.416Z,1708
2017-09-28T06:50:50.481Z,1605
2017-09-28T06:51:20.508Z,1545
2017-09-28T06:51:50.538Z,1540
2017-09-28T06:53:20.612Z,1568
2017-09-28T06:53:50.722Z,1625
2017-09-28T06:54:20.683Z,1675
2017-09-28T06:54:50.715Z,1715
2017-09-28T06:55:20.745Z,1798
2017-09-28T06:55:50.858Z,1760
2017-09-28T06:56:20.817Z,1612
2017-09-28T06:56:50.890Z,1568
2017-09-28T06:57:20.887Z,1552
2017-09-28T06:57:50.964Z,1568
2017-09-28T06:58:20.967Z,1630
2017-09-28T06:58:51.019Z,1712
2017-09-28T06:59:21.062Z,2010
2017-09-28T06:59:51.101Z,2087
2017-09-28T07:00:21.154Z,2012
2017-09-28T07:00:51.173Z,2005
2017-09-28T07:01:21.182Z,1963
2017-09-28T07:01:51.249Z,2045
2017-09-28T07:02:21.265Z,2070
2017-09-28T07:02:51.336Z,1985
2017-09-28T07:03:21.335Z,1883
2017-09-28T07:03:51.396Z,1847
2017-09-28T07:04:21.373Z,1895
2017-09-28T07:04:51.438Z,1870
2017-09-28T07:05:21.459Z,1798
2017-09-28T07:05:51.496Z,1738
2017-09-28T07:06:21.548Z,1748
2017-09-28T07:06:51.565Z,1727
2017-09-28T07:07:21.609Z,1748
2017-09-28T07:07:51.633Z,1825
2017-09-28T07:08:21.692Z,1828
2017-09-28T07:08:51.757Z,1678
2017-09-28T07:09:21.713Z,1650
2017-09-28T07:09:51.760Z,1595
2017-09-28T07:10:21.800Z,1605
2017-09-28T07:10:51.804Z,1703
2017-09-28T07:11:21.868Z,1800
2017-09-28T07:11:51.890Z,1862
2017-09-28T07:12:21.931Z,1850
2017-09-28T07:12:51.967Z,1762
2017-09-28T07:13:21.984Z,1622
2017-09-28T07:13:52.051Z,1642
2017-09-28T07:14:22.067Z,1700
2017-09-28T07:14:52.069Z,1735
2017-09-28T07:15:22.124Z,1762
2017-09-28T07:15:52.175Z,1808
2017-09-28T07:16:22.190Z,1810
2017-09-28T07:16:52.245Z,1800
2017-09-28T07:17:22.247Z,1762
2017-09-28T07:17:52.254Z,1770
2017-09-28T07:18:22.299Z,1778
2017-09-28T07:18:52.326Z,1813
2017-09-28T07:19:22.389Z,1838
2017-09-28T07:19:52.413Z,1832
2017-09-28T07:20:22.470Z,1855
2017-09-28T07:20:52.437Z,1823
2017-09-28T07:21:22.448Z,1838
2017-09-28T07:21:52.488Z,1945
2017-09-28T07:22:22.530Z,1963
2017-09-28T07:22:52.581Z,1960
2017-09-28T07:23:22.604Z,1955
2017-09-28T07:23:52.644Z,1890
2017-09-28T07:24:22.666Z,1787
2017-09-28T07:24:52.731Z,1727
2017-09-28T07:25:22.790Z,1682
2017-09-28T07:25:52.786Z,1675
2017-09-28T07:26:22.806Z,1655
2017-09-28T07:26:52.816Z,1605
2017-09-28T07:27:22.877Z,1618
2017-09-28T07:27:52.989Z,1738
2017-09-28T07:28:22.922Z,1952
2017-09-28T07:28:52.951Z,2117
2017-09-28T07:29:22.986Z,2207
2017-09-28T07:29:53.015Z,2248
2017-09-28T07:30:23.062Z,2297
2017-09-28T07:30:53.082Z,2387
2017-09-28T07:31:23.112Z,2385
2017-09-28T07:31:53.142Z,2295
2017-09-28T07:32:23.218Z,2255
2017-09-28T07:32:53.259Z,2305
2017-09-28T07:33:23.290Z,2320
2017-09-28T07:33:53.334Z,2280
2017-09-28T07:34:23.375Z,2190
2017-09-28T07:34:53.329Z,2068
2017-09-28T07:35:23.393Z,1973
2017-09-28T07:35:53.459Z,1920
2017-09-28T07:36:23.489Z,1915
2017-09-28T07:36:53.532Z,1875
2017-09-28T07:37:23.567Z,1835
2017-09-28T07:37:53.571Z,1847
2017-09-28T07:38:23.621Z,1883
2017-09-28T07:38:53.653Z,1915
2017-09-28T07:39:23.673Z,1955
2017-09-28T07:39:53.743Z,1930
2017-09-28T07:40:23.745Z,1952
2017-09-28T07:40:53.814Z,2030
2017-09-28T07:41:23.857Z,2027
2017-09-28T07:41:53.832Z,2038
2017-09-28T07:42:23.905Z,2182
2017-09-28T07:42:53.950Z,2290
2017-09-28T07:43:24.016Z,2390
2017-09-28T07:43:54.039Z,2440
2017-09-28T07:44:24.081Z,2477
2017-09-28T07:44:54.082Z,2432
2017-09-28T07:45:24.082Z,2368
2017-09-28T07:45:54.163Z,2290
2017-09-28T07:46:24.214Z,2265
2017-09-28T07:46:54.228Z,2297
2017-09-28T07:47:24.258Z,2280
2017-09-28T07:47:54.240Z,2263
2017-09-28T07:48:24.276Z,2330
2017-09-28T07:48:54.365Z,2455
2017-09-28T07:49:24.396Z,2557
2017-09-28T07:49:54.367Z,2755
2017-09-28T07:50:24.474Z,3017
2017-09-28T07:50:54.486Z,3150
2017-09-28T07:51:24.514Z,3225
2017-09-28T07:51:54.580Z,3268
2017-09-28T07:52:24.614Z,3305
2017-09-28T07:52:54.650Z,3347
2017-09-28T07:53:24.695Z,3367
2017-09-28T07:53:54.696Z,3383
2017-09-28T07:54:24.683Z,3322
2017-09-28T07:54:54.791Z,3255
2017-09-28T07:55:24.786Z,3365
2017-09-28T07:55:54.816Z,3478
2017-09-28T07:56:24.813Z,3475
2017-09-28T07:56:54.872Z,3482
2017-09-28T07:57:24.889Z,3540
2017-09-28T07:57:54.958Z,3623
2017-09-28T07:58:24.994Z,3673
2017-09-28T07:58:54.993Z,3650
2017-09-28T07:59:25.069Z,3557
2017-09-28T07:59:55.089Z,3508
2017-09-28T08:00:25.114Z,3503
2017-09-28T08:00:55.149Z,3550
2017-09-28T08:01:25.128Z,3653
2017-09-28T08:01:55.192Z,3730
2017-09-28T08:02:25.317Z,3983
2017-09-28T08:02:55.250Z,4138
2017-09-28T08:03:25.293Z,4180
2017-09-28T08:03:55.355Z,4170
2017-09-28T08:04:25.380Z,4075
2017-09-28T08:04:55.381Z,3962
2017-09-28T08:05:25.449Z,3913
2017-09-28T08:05:55.458Z,3952
2017-09-28T08:06:25.504Z,3958
2017-09-28T08:06:55.491Z,3883
2017-09-28T08:07:25.572Z,3838
2017-09-28T08:07:55.605Z,3868
2017-09-28T08:08:25.615Z,3920
2017-09-28T08:08:55.697Z,3962
2017-09-28T08:09:25.679Z,3975
2017-09-28T08:09:55.708Z,3985
2017-09-28T08:10:25.769Z,3960
2017-09-28T08:10:55.768Z,3935
2017-09-28T08:11:25.789Z,4045
2017-09-28T08:11:55.885Z,4138
2017-09-28T08:12:25.853Z,4115
2017-09-28T08:12:55.915Z,3970
2017-09-28T08:13:25.939Z,4007
2017-09-28T08:13:55.977Z,4202
2017-09-28T08:14:25.983Z,4365
2017-09-28T08:14:56.017Z,4555
2017-09-28T08:15:26.087Z,4800
2017-09-28T08:15:56.106Z,5030
2017-09-28T08:16:26.118Z,5120
2017-09-28T08:16:56.180Z,5045
2017-09-28T08:17:26.179Z,4960
2017-09-28T08:17:56.246Z,4925
2017-09-28T08:18:26.244Z,4892
2017-09-28T08:18:56.277Z,4920
2017-09-28T08:19:26.349Z,4937
2017-09-28T08:19:56.398Z,4922
2017-09-28T08:20:26.450Z,4910
2017-09-28T08:20:56.445Z,5010
2017-09-28T08:21:26.498Z,5233
2017-09-28T08:21:56.537Z,5453
2017-09-28T08:22:26.606Z,5815
2017-09-28T08:22:56.608Z,6015
2017-09-28T08:23:26.616Z,6047
2017-09-28T08:23:56.614Z,6223
2017-09-28T08:24:26.705Z,6493
2017-09-28T08:24:56.735Z,6578
2017-09-28T08:25:26.764Z,6420
2017-09-28T08:25:56.814Z,6090
2017-09-28T08:26:26.877Z,5780
2017-09-28T08:26:56.864Z,5588
2017-09-28T08:27:26.908Z,5702
2017-09-28T08:27:56.954Z,6040
2017-09-28T08:28:26.954Z,6397
2017-09-28T08:28:57.015Z,6778
2017-09-28T08:29:27.024Z,7202
2017-09-28T08:29:57.078Z,7625
2017-09-28T08:30:27.045Z,8070
2017-09-28T08:30:57.125Z,8317
2017-09-28T08:31:27.178Z,8057
2017-09-28T08:31:57.215Z,7645
2017-09-28T08:32:27.236Z,7195
2017-09-28T08:32:57.205Z,6778
2017-09-28T08:33:27.267Z,6400
2017-09-28T08:33:57.317Z,6125
2017-09-28T08:34:27.368Z,6060
2017-09-28T08:34:57.409Z,6100
2017-09-28T08:35:27.384Z,6200
2017-09-28T08:35:57.447Z,6283
2017-09-28T08:36:27.473Z,5965
2017-09-28T08:36:57.544Z,5663
2017-09-28T08:37:27.553Z,5492
2017-09-28T08:37:57.547Z,5317
2017-09-28T08:38:27.647Z,5258
2017-09-28T08:38:57.677Z,5423
2017-09-28T08:39:27.670Z,5530
2017-09-28T08:39:57.699Z,5578
2017-09-28T08:40:27.744Z,5567
2017-09-28T08:40:57.796Z,5597
2017-09-28T08:41:27.844Z,5760
2017-09-28T08:41:57.857Z,6002
2017-09-28T08:42:27.911Z,6225
2017-09-28T08:42:57.936Z,6510
2017-09-28T08:43:27.988Z,6475
2017-09-28T08:43:58.013Z,6343
2017-09-28T08:44:28.046Z,6125
2017-09-28T08:44:58.100Z,6058
2017-09-28T08:45:28.089Z,6155
2017-09-28T08:45:58.139Z,6203
2017-09-28T08:46:28.289Z,6040
2017-09-28T08:46:58.185Z,5968
2017-09-28T08:47:28.249Z,5820
2017-09-28T08:47:58.254Z,5550
2017-09-28T08:48:28.310Z,5275
2017-09-28T08:48:58.318Z,5070
2017-09-28T08:49:28.293Z,4937
2017-09-28T08:49:58.350Z,4868
2017-09-28T08:50:28.422Z,4852
2017-09-28T08:50:58.459Z,4885
2017-09-28T08:51:28.509Z,4915
2017-09-28T08:51:58.542Z,4937
2017-09-28T08:52:28.541Z,4945
2017-09-28T08:52:58.583Z,4885
2017-09-28T08:53:28.610Z,4800
2017-09-28T08:53:58.644Z,4755
2017-09-28T08:54:28.679Z,4710
2017-09-28T08:54:58.676Z,4642
2017-09-28T08:55:28.883Z,4590
2017-09-28T08:55:58.759Z,4540
2017-09-28T08:56:28.777Z,4547
2017-09-28T08:56:58.844Z,4645
2017-09-28T08:57:28.870Z,4805
2017-09-28T08:57:58.868Z,4997
2017-09-28T08:58:28.922Z,5107
2017-09-28T08:58:59.936Z,5225
2017-09-28T08:59:28.956Z,5400
2017-09-28T08:59:59.023Z,5582
2017-09-28T09:00:29.020Z,5590
2017-09-28T09:00:59.062Z,5440
2017-09-28T09:01:29.086Z,5300
2017-09-28T09:01:59.134Z,5210
2017-09-28T09:02:29.154Z,5105
2017-09-28T09:02:59.207Z,5005
2017-09-28T09:03:29.288Z,4963
2017-09-28T09:03:59.256Z,4955
2017-09-28T09:04:29.329Z,4945
2017-09-28T09:04:59.368Z,5005
2017-09-28T09:05:29.413Z,5038
2017-09-28T09:05:59.439Z,5057
2017-09-28T09:06:29.462Z,5115
2017-09-28T09:06:59.527Z,5252
2017-09-28T09:07:29.572Z,5505
2017-09-28T09:07:59.608Z,5828
2017-09-28T09:08:29.598Z,6223
2017-09-28T09:08:59.645Z,6317
2017-09-28T09:09:29.733Z,6160
2017-09-28T09:09:59.652Z,5960
2017-09-28T09:10:29.747Z,5822
2017-09-28T09:10:59.783Z,5845
2017-09-28T09:11:29.818Z,5882
2017-09-28T09:11:59.862Z,5807
2017-09-28T09:12:29.916Z,5820
2017-09-28T09:12:59.956Z,5983
2017-09-28T09:13:29.948Z,6347
2017-09-28T09:13:59.986Z,6643
2017-09-28T09:14:30.020Z,6670
2017-09-28T09:14:59.994Z,6650
2017-09-28T09:15:30.092Z,6825
2017-09-28T09:16:00.131Z,6998
2017-09-28T09:16:30.113Z,7310
2017-09-28T09:17:00.173Z,7838
2017-09-28T09:17:30.226Z,8383
2017-09-28T09:18:00.274Z,8835
2017-09-28T09:18:30.307Z,9227
2017-09-28T09:19:00.764Z,9560
2017-09-28T09:19:30.300Z,9830
2017-09-28T09:20:00.570Z,9890
2017-09-28T09:20:30.460Z,9625
2017-09-28T09:21:00.664Z,8942
2017-09-28T09:21:30.514Z,8473
2017-09-28T09:22:00.658Z,8625
2017-09-28T09:22:30.508Z,8608
2017-09-28T09:23:00.707Z,8173
2017-09-28T09:23:30.656Z,7750
2017-09-28T09:24:00.818Z,7495
2017-09-28T09:46:36.626Z,10687
2017-09-28T09:47:02.202Z,10460
2017-09-28T09:47:32.176Z,10342
2017-09-28T09:48:02.257Z,10367
2017-09-28T09:48:32.259Z,10290
2017-09-28T09:49:02.335Z,10005
2017-09-28T09:49:32.399Z,9440
2017-09-28T09:50:02.336Z,8788
2017-09-28T09:50:32.400Z,8220
2017-09-28T09:51:02.440Z,7880
2017-09-28T09:51:32.495Z,7745
2017-09-28T09:52:02.575Z,7560
2017-09-28T09:52:32.547Z,7325
2017-09-28T09:53:02.578Z,7067
2017-09-28T09:53:32.641Z,6887
2017-09-28T09:54:02.635Z,6727
2017-09-28T09:54:32.678Z,6662
2017-09-28T09:55:02.733Z,6673
2017-09-28T09:55:32.754Z,6675
2017-09-28T09:56:02.767Z,6722
2017-09-28T09:56:32.793Z,6727
2017-09-28T09:57:02.984Z,6763
2017-09-28T09:57:32.890Z,6863
2017-09-28T09:58:02.894Z,6925
2017-09-28T09:58:32.944Z,7120
2017-09-28T09:59:02.995Z,7345
2017-09-28T09:59:32.999Z,7402
2017-09-28T10:00:03.027Z,7253
2017-09-28T10:00:33.096Z,7075
2017-09-28T10:01:03.609Z,6953
2017-09-28T10:01:33.612Z,6833
2017-09-28T10:02:03.683Z,6827
2017-09-28T10:02:33.691Z,6940
2017-09-28T10:03:03.727Z,7100
2017-09-28T10:03:33.759Z,7240
2017-09-28T10:04:03.827Z,7400
2017-09-28T10:04:33.821Z,7483
2017-09-28T10:05:03.829Z,7450
2017-09-28T10:05:33.837Z,7445
2017-09-28T10:06:03.949Z,7500
2017-09-28T10:06:33.958Z,7637
2017-09-28T10:07:03.991Z,7680
2017-09-28T10:08:04.002Z,7600
2017-09-28T10:08:34.064Z,7585
2017-09-28T10:09:04.127Z,7630
2017-09-28T10:09:34.200Z,7685
2017-09-28T10:10:04.141Z,7670
2017-09-28T10:10:34.227Z,7680
2017-09-28T10:11:04.242Z,7723
2017-09-28T10:11:34.303Z,7717
2017-09-28T10:12:04.314Z,7610
2017-09-28T10:12:34.293Z,7470
2017-09-28T10:13:04.351Z,7240
2017-09-28T10:13:34.411Z,7145
2017-09-28T10:14:04.401Z,7125
2017-09-28T10:14:34.444Z,7160
2017-09-28T10:15:04.502Z,7222
2017-09-28T10:15:34.498Z,7408
2017-09-28T10:16:04.527Z,7615
2017-09-28T10:16:34.611Z,7735
2017-09-28T10:17:04.593Z,7832
2017-09-28T10:17:34.613Z,7793
2017-09-28T10:18:04.668Z,7760
2017-09-28T10:18:34.689Z,7730
2017-09-28T10:19:04.711Z,7825
2017-09-28T10:19:34.796Z,7980
2017-09-28T10:20:04.776Z,8182
2017-09-28T10:20:34.820Z,8575
2017-09-28T10:21:04.838Z,9155
2017-09-28T10:21:34.871Z,9635
2017-09-28T10:22:04.899Z,9823
2017-09-28T10:22:34.936Z,9938
2017-09-28T10:23:04.963Z,10110
2017-09-28T10:23:35.014Z,10315
2017-09-28T10:24:05.025Z,10550
2017-09-28T10:24:35.059Z,10922
2017-09-28T10:25:05.105Z,11087
2017-09-28T10:25:35.151Z,11105
2017-09-28T10:26:05.204Z,11300
2017-09-28T10:26:35.233Z,11635
2017-09-28T10:27:05.313Z,12605
2017-09-28T10:27:35.331Z,14197
2017-09-28T10:28:05.308Z,16225
2017-09-28T10:28:35.341Z,15110
2017-09-28T10:29:05.386Z,14510
2017-09-28T10:29:35.419Z,13688
2017-09-28T10:30:05.434Z,12698
2017-09-28T10:30:35.596Z,12137
2017-09-28T10:31:05.529Z,11917
2017-09-28T10:31:35.579Z,12085
2017-09-28T10:32:05.623Z,12230
2017-09-28T10:32:35.617Z,12085
2017-09-28T10:33:05.669Z,11902
2017-09-28T10:33:36.678Z,11595
2017-09-28T10:34:06.845Z,11243
2017-09-28T10:34:36.947Z,11000
2017-09-28T10:35:06.993Z,10742
2017-09-28T10:35:36.911Z,10472
2017-09-28T10:36:06.964Z,10243
2017-09-28T10:36:36.977Z,10253
2017-09-28T10:37:06.978Z,10397
2017-09-28T10:37:37.068Z,10442
2017-09-28T10:38:07.119Z,10387
2017-09-28T10:38:37.155Z,10298
2017-09-28T10:39:07.175Z,10155
2017-09-28T10:39:37.156Z,9905
2017-09-28T10:40:07.320Z,9630
2017-09-28T10:40:37.296Z,9512
2017-09-28T10:41:07.298Z,9565
2017-09-28T10:41:37.366Z,9907
2017-09-28T10:42:07.380Z,10432
2017-09-28T10:42:37.411Z,10870
2017-09-28T10:43:07.404Z,11020
2017-09-28T10:43:37.440Z,10978
2017-09-28T10:44:07.502Z,10813
2017-09-28T10:44:37.582Z,10663
2017-09-28T10:45:07.594Z,10603
2017-09-28T10:45:37.578Z,10667
2017-09-28T10:46:07.734Z,10813
2017-09-28T10:46:37.645Z,10843
2017-09-28T10:47:07.743Z,10712
2017-09-28T10:47:37.738Z,10528
2017-09-28T10:48:07.743Z,10485
2017-09-28T10:48:37.797Z,10700
2017-09-28T10:49:07.827Z,11057
2017-09-28T10:49:37.858Z,11092
2017-09-28T10:50:07.941Z,10750
2017-09-28T10:50:37.937Z,10183
2017-09-28T10:51:07.942Z,9608
2017-09-28T10:51:37.976Z,9227
2017-09-28T10:52:08.010Z,9032
2017-09-28T10:52:38.042Z,8865
2017-09-28T10:53:08.081Z,8683
2017-09-28T10:53:38.131Z,8507
2017-09-28T10:54:08.141Z,8402
2017-09-28T10:54:38.193Z,8353
2017-09-28T10:55:08.276Z,8395
2017-09-28T10:55:38.264Z,8575
2017-09-28T10:56:08.354Z,8798
2017-09-28T10:56:38.335Z,9095
2017-09-28T10:57:08.372Z,9350
2017-09-28T10:57:38.422Z,9275
2017-09-28T10:58:08.438Z,8885
2017-09-28T10:58:38.489Z,8552
2017-09-28T10:59:08.561Z,8518
2017-09-28T10:59:38.637Z,8680
2017-09-28T11:00:08.673Z,8728
2017-09-28T11:01:08.692Z,8905
2017-09-28T11:01:38.700Z,9120
2017-09-28T11:02:08.761Z,9382
2017-09-28T11:02:38.801Z,9478
2017-09-28T11:03:08.822Z,9397
2017-09-28T11:03:38.839Z,9337
2017-09-28T11:04:08.887Z,9302
2017-09-28T11:04:38.918Z,9255
2017-09-28T11:05:08.947Z,9098
2017-09-28T11:05:39.086Z,8813
2017-09-28T11:06:09.009Z,8520
2017-09-28T11:06:39.044Z,8338
2017-09-28T11:07:09.098Z,8240
2017-09-28T11:07:39.122Z,8167
2017-09-28T11:08:09.161Z,8180
2017-09-28T11:08:39.187Z,8155
2017-09-28T11:09:09.194Z,8110
2017-09-28T11:09:39.231Z,7988
2017-09-28T11:10:09.294Z,7895
2017-09-28T11:10:39.389Z,7858
2017-09-28T11:11:09.343Z,7825
2017-09-28T11:11:39.364Z,7807
2017-09-28T11:12:09.429Z,7830
2017-09-28T11:12:39.460Z,7985
2017-09-28T11:13:09.470Z,8125
2017-09-28T11:13:39.491Z,8438
2017-09-28T11:14:09.551Z,8932
2017-09-28T11:14:39.658Z,9485
2017-09-28T11:15:09.619Z,9795
2017-09-28T11:15:39.709Z,9965
2017-09-28T11:16:09.672Z,10147
2017-09-28T11:16:39.732Z,10290
2017-09-28T11:17:09.741Z,10288
2017-09-28T11:17:39.792Z,10102
2017-09-28T11:18:09.811Z,9830
2017-09-28T11:18:39.876Z,9527
2017-09-28T11:19:09.852Z,9160
2017-09-28T11:19:39.932Z,8968
2017-09-28T11:20:09.974Z,8972
2017-09-28T11:20:40.025Z,8818
2017-09-28T11:21:10.038Z,8503
2017-09-28T11:21:40.053Z,8143
2017-09-28T11:22:10.126Z,7765
2017-09-28T11:22:40.077Z,7455
2017-09-28T11:23:10.186Z,7230
2017-09-28T11:23:40.198Z,7280
2017-09-28T11:24:10.244Z,7402
2017-09-28T11:24:40.253Z,7270
2017-09-28T11:25:10.285Z,6980
2017-09-28T11:25:40.373Z,6850
2017-09-28T11:26:10.354Z,6920
2017-09-28T11:26:40.383Z,7082
2017-09-28T11:27:10.418Z,7292
2017-09-28T11:27:40.464Z,7442
2017-09-28T11:28:10.493Z,7445
2017-09-28T11:28:40.507Z,7457
2017-09-28T11:29:10.611Z,7635
2017-09-28T11:29:40.675Z,7915
2017-09-28T11:30:10.680Z,8198
2017-09-28T11:30:40.835Z,8467
2017-09-28T11:31:10.719Z,8728
2017-09-28T11:31:40.800Z,8950
2017-09-28T11:32:10.799Z,9047
2017-09-28T11:32:40.861Z,8990
2017-09-28T11:33:10.846Z,8903
2017-09-28T11:33:40.910Z,8870
2017-09-28T11:34:10.931Z,8737
2017-09-28T11:34:40.996Z,8435
2017-09-28T11:35:11.002Z,8000
2017-09-28T11:35:41.116Z,7595
2017-09-28T11:36:11.053Z,7360
2017-09-28T11:36:41.112Z,7260
2017-09-28T11:37:11.120Z,7267
2017-09-28T11:37:41.172Z,7357
2017-09-28T11:38:11.233Z,7450
2017-09-28T11:38:41.271Z,7535
2017-09-28T11:39:11.257Z,7633
2017-09-28T11:39:41.354Z,7723
2017-09-28T11:40:11.363Z,7715
2017-09-28T11:40:41.507Z,7502
2017-09-28T11:41:11.467Z,7273
2017-09-28T11:41:41.488Z,7168
2017-09-28T11:42:11.498Z,7205
2017-09-28T11:42:41.556Z,7355
2017-09-28T11:43:11.534Z,7697
2017-09-28T11:43:41.642Z,8167
2017-09-28T11:44:11.633Z,8657
2017-09-28T11:44:41.750Z,9058
2017-09-28T11:45:11.735Z,9347
2017-09-28T11:45:41.817Z,9608
2017-09-28T11:46:11.726Z,9915
2017-09-28T11:46:41.836Z,10280
2017-09-28T11:47:11.866Z,10610
2017-09-28T11:47:41.898Z,10963
2017-09-28T11:48:11.914Z,11248
2017-09-28T11:48:41.962Z,11460
2017-09-28T11:49:12.006Z,11585
2017-09-28T11:49:41.966Z,11675
2017-09-28T11:50:12.051Z,11790
2017-09-28T11:50:42.295Z,11860
2017-09-28T11:51:42.143Z,11840
2017-09-28T11:52:12.194Z,11797
2017-09-28T11:52:42.220Z,11683
2017-09-28T11:53:12.213Z,11497
2017-09-28T11:53:42.275Z,11357
2017-09-28T11:54:12.299Z,11342
2017-09-28T11:54:42.378Z,11580
2017-09-28T11:55:12.369Z,11965
2017-09-28T11:55:42.472Z,12280
2017-09-28T11:56:12.449Z,12620
2017-09-28T11:56:42.461Z,13168
2017-09-28T11:57:12.534Z,13390
2017-09-28T11:57:42.554Z,13408
2017-09-28T11:58:12.546Z,13375
2017-09-28T11:58:42.578Z,13547
2017-09-28T11:59:12.666Z,13757
2017-09-28T11:59:42.790Z,14722
2017-09-28T12:00:12.704Z,14995
2017-09-28T12:00:43.256Z,14728
2017-09-28T12:01:12.790Z,14065
2017-09-28T12:01:42.771Z,13933
2017-09-28T12:02:12.850Z,14197
2017-09-28T12:02:42.904Z,14230
2017-09-28T12:03:12.931Z,13652
2017-09-28T12:03:42.978Z,13750
2017-09-28T12:04:13.008Z,13375
2017-09-28T12:05:13.080Z,13715
2017-09-28T12:05:43.235Z,13615
2017-09-28T12:06:13.155Z,13378
2017-09-28T12:06:43.165Z,13442